sensor_id;sensor_type;location;lat;lon;timestamp;pressure;altitude;pressure_sealevel;temperature;humidity
21781;BME280;52576;53.614;9.894;2024-01-30T00:00:19;102493.78;;;3.68;88.36
21781;BME280;52576;53.614;9.894;2024-01-30T00:02:24;102486.88;;;3.67;88.42
21781;BME280;52576;53.614;9.894;2024-01-30T00:04:26;102495.53;;;3.66;88.52
21781;BME280;52576;53.614;9.894;2024-01-30T00:06:29;102491.22;;;3.65;88.72
21781;BME280;52576;53.614;9.894;2024-01-30T00:08:33;102492.09;;;3.64;88.78
21781;BME280;52576;53.614;9.894;2024-01-30T00:10:36;102492.09;;;3.64;88.93
21781;BME280;52576;53.614;9.894;2024-01-30T00:12:39;102496.44;;;3.64;88.85
21781;BME280;52576;53.614;9.894;2024-01-30T00:14:42;102490.41;;;3.63;89.01
21781;BME280;52576;53.614;9.894;2024-01-30T00:16:45;102492.09;;;3.64;89.09
21781;BME280;52576;53.614;9.894;2024-01-30T00:18:49;102473.16;;;3.62;89.05
21781;BME280;52576;53.614;9.894;2024-01-30T00:20:53;102474.03;;;3.61;89.04
21781;BME280;52576;53.614;9.894;2024-01-30T00:22:56;102478.34;;;3.59;89.07
21781;BME280;52576;53.614;9.894;2024-01-30T00:24:59;102477.50;;;3.57;89.07
21781;BME280;52576;53.614;9.894;2024-01-30T00:27:02;102474.09;;;3.54;89.09
21781;BME280;52576;53.614;9.894;2024-01-30T00:29:05;102474.13;;;3.51;89.14
21781;BME280;52576;53.614;9.894;2024-01-30T00:31:08;102467.22;;;3.48;89.14
21781;BME280;52576;53.614;9.894;2024-01-30T00:33:14;102476.75;;;3.46;89.33
21781;BME280;52576;53.614;9.894;2024-01-30T00:35:19;102472.44;;;3.44;89.35
21781;BME280;52576;53.614;9.894;2024-01-30T00:37:24;102475.06;;;3.42;89.55
21781;BME280;52576;53.614;9.894;2024-01-30T00:39:27;102472.47;;;3.40;89.65
21781;BME280;52576;53.614;9.894;2024-01-30T00:41:30;102471.63;;;3.38;89.52
21781;BME280;52576;53.614;9.894;2024-01-30T00:43:32;102471.69;;;3.37;89.65
21781;BME280;52576;53.614;9.894;2024-01-30T00:45:35;102476.88;;;3.35;89.82
21781;BME280;52576;53.614;9.894;2024-01-30T00:47:38;102471.72;;;3.34;89.82
21781;BME280;52576;53.614;9.894;2024-01-30T00:49:42;102475.16;;;3.33;90.03
21781;BME280;52576;53.614;9.894;2024-01-30T00:51:46;102470.88;;;3.32;90.11
21781;BME280;52576;53.614;9.894;2024-01-30T00:53:50;102466.56;;;3.31;90.15
21781;BME280;52576;53.614;9.894;2024-01-30T00:55:53;102465.69;;;3.30;90.32
21781;BME280;52576;53.614;9.894;2024-01-30T00:57:55;102464.84;;;3.30;90.33
21781;BME280;52576;53.614;9.894;2024-01-30T00:59:58;102465.69;;;3.30;90.44
21781;BME280;52576;53.614;9.894;2024-01-30T01:02:01;102463.97;;;3.31;90.47
21781;BME280;52576;53.614;9.894;2024-01-30T01:04:06;102465.69;;;3.30;90.52
21781;BME280;52576;53.614;9.894;2024-01-30T01:06:09;102471.72;;;3.31;90.38
21781;BME280;52576;53.614;9.894;2024-01-30T01:08:13;102464.84;;;3.30;90.33
21781;BME280;52576;53.614;9.894;2024-01-30T01:10:16;102472.59;;;3.30;90.49
21781;BME280;52576;53.614;9.894;2024-01-30T01:12:20;102473.47;;;3.29;90.34
21781;BME280;52576;53.614;9.894;2024-01-30T01:14:23;102467.41;;;3.30;90.50
21781;BME280;52576;53.614;9.894;2024-01-30T01:16:27;102469.13;;;3.31;90.71
21781;BME280;52576;53.614;9.894;2024-01-30T01:18:30;102476.91;;;3.31;90.56
21781;BME280;52576;53.614;9.894;2024-01-30T01:20:33;102474.31;;;3.32;90.63
21781;BME280;52576;53.614;9.894;2024-01-30T01:22:37;102475.16;;;3.33;90.67
21781;BME280;52576;53.614;9.894;2024-01-30T01:24:43;102475.16;;;3.36;90.61
21781;BME280;52576;53.614;9.894;2024-01-30T01:26:46;102481.19;;;3.36;90.91
21781;BME280;52576;53.614;9.894;2024-01-30T01:28:49;102475.97;;;3.38;90.68
21781;BME280;52576;53.614;9.894;2024-01-30T01:30:51;102474.22;;;3.40;90.88
21781;BME280;52576;53.614;9.894;2024-01-30T01:32:54;102476.78;;;3.43;90.93
21781;BME280;52576;53.614;9.894;2024-01-30T01:34:59;102469.00;;;3.45;90.90
21781;BME280;52576;53.614;9.894;2024-01-30T01:37:02;102472.44;;;3.47;90.73
21781;BME280;52576;53.614;9.894;2024-01-30T01:39:06;102471.53;;;3.49;90.92
21781;BME280;52576;53.614;9.894;2024-01-30T01:41:11;102459.41;;;3.51;90.91
21781;BME280;52576;53.614;9.894;2024-01-30T01:43:15;102464.56;;;3.54;90.85
21781;BME280;52576;53.614;9.894;2024-01-30T01:45:18;102459.38;;;3.57;90.81
21781;BME280;52576;53.614;9.894;2024-01-30T01:47:21;102464.53;;;3.60;90.98
21781;BME280;52576;53.614;9.894;2024-01-30T01:49:25;102460.13;;;3.64;90.93
21781;BME280;52576;53.614;9.894;2024-01-30T01:51:31;102458.38;;;3.66;90.71
21781;BME280;52576;53.614;9.894;2024-01-30T01:53:36;102454.88;;;3.70;90.86
21781;BME280;52576;53.614;9.894;2024-01-30T01:55:38;102447.94;;;3.72;90.65
21781;BME280;52576;53.614;9.894;2024-01-30T01:57:43;102448.78;;;3.75;90.75
21781;BME280;52576;53.614;9.894;2024-01-30T01:59:47;102450.47;;;3.80;90.52
21781;BME280;52576;53.614;9.894;2024-01-30T02:01:51;102450.44;;;3.83;90.61
21781;BME280;52576;53.614;9.894;2024-01-30T02:03:55;102445.22;;;3.86;90.47
21781;BME280;52576;53.614;9.894;2024-01-30T02:05:58;102441.69;;;3.90;90.38
21781;BME280;52576;53.614;9.894;2024-01-30T02:08:01;102437.31;;;3.93;90.31
21781;BME280;52576;53.614;9.894;2024-01-30T02:10:06;102436.41;;;3.96;90.41
21781;BME280;52576;53.614;9.894;2024-01-30T02:12:09;102432.06;;;3.98;90.24
21781;BME280;52576;53.614;9.894;2024-01-30T02:14:15;102432.88;;;4.03;90.31
21781;BME280;52576;53.614;9.894;2024-01-30T02:16:18;102427.63;;;4.06;90.22
21781;BME280;52576;53.614;9.894;2024-01-30T02:18:22;102431.06;;;4.08;89.89
21781;BME280;52576;53.614;9.894;2024-01-30T02:20:45;102425.00;;;4.09;89.92
21781;BME280;52576;53.614;9.894;2024-01-30T02:22:51;102425.84;;;4.11;89.83
21781;BME280;52576;53.614;9.894;2024-01-30T02:24:54;102424.09;;;4.13;89.70
21781;BME280;52576;53.614;9.894;2024-01-30T02:26:57;102417.19;;;4.12;89.67
21781;BME280;52576;53.614;9.894;2024-01-30T02:29:00;102417.19;;;4.12;89.66
21781;BME280;52576;53.614;9.894;2024-01-30T02:31:04;102415.47;;;4.11;89.64
21781;BME280;52576;53.614;9.894;2024-01-30T02:33:07;102416.34;;;4.10;89.50
21781;BME280;52576;53.614;9.894;2024-01-30T02:35:09;102417.22;;;4.09;89.44
21781;BME280;52576;53.614;9.894;2024-01-30T02:37:12;102412.03;;;4.09;89.42
21781;BME280;52576;53.614;9.894;2024-01-30T02:39:17;102418.97;;;4.07;89.51
21781;BME280;52576;53.614;9.894;2024-01-30T02:41:20;102409.47;;;4.06;89.48
21781;BME280;52576;53.614;9.894;2024-01-30T02:43:23;102403.44;;;4.04;89.39
21781;BME280;52576;53.614;9.894;2024-01-30T02:45:26;102405.22;;;4.02;89.35
21781;BME280;52576;53.614;9.894;2024-01-30T02:47:29;102405.25;;;3.99;89.48
21781;BME280;52576;53.614;9.894;2024-01-30T02:49:33;102406.13;;;3.96;89.48
21781;BME280;52576;53.614;9.894;2024-01-30T02:51:36;102405.31;;;3.93;89.31
21781;BME280;52576;53.614;9.894;2024-01-30T02:53:39;102401.03;;;3.90;89.40
21781;BME280;52576;53.614;9.894;2024-01-30T02:55:43;102405.44;;;3.85;89.40
21781;BME280;52576;53.614;9.894;2024-01-30T02:57:47;102400.28;;;3.82;89.34
21781;BME280;52576;53.614;9.894;2024-01-30T02:59:50;102403.81;;;3.77;89.48
21781;BME280;52576;53.614;9.894;2024-01-30T03:01:53;102405.59;;;3.71;89.38
21781;BME280;52576;53.614;9.894;2024-01-30T03:03:56;102396.16;;;3.66;89.49
21781;BME280;52576;53.614;9.894;2024-01-30T03:05:59;102395.38;;;3.61;89.51
21781;BME280;52576;53.614;9.894;2024-01-30T03:08:04;102398.88;;;3.55;89.55
21781;BME280;52576;53.614;9.894;2024-01-30T03:10:07;102390.31;;;3.50;89.62
21781;BME280;52576;53.614;9.894;2024-01-30T03:12:12;102393.81;;;3.45;89.72
21781;BME280;52576;53.614;9.894;2024-01-30T03:14:15;102396.47;;;3.40;89.82
21781;BME280;52576;53.614;9.894;2024-01-30T03:16:18;102395.69;;;3.35;90.11
21781;BME280;52576;53.614;9.894;2024-01-30T03:18:22;102389.69;;;3.30;90.19
21781;BME280;52576;53.614;9.894;2024-01-30T03:20:25;102384.53;;;3.25;90.16
21781;BME280;52576;53.614;9.894;2024-01-30T03:22:28;102383.75;;;3.19;90.20
21781;BME280;52576;53.614;9.894;2024-01-30T03:24:31;102378.59;;;3.14;90.27
21781;BME280;52576;53.614;9.894;2024-01-30T03:26:34;102376.97;;;3.09;90.36
21781;BME280;52576;53.614;9.894;2024-01-30T03:28:39;102379.59;;;3.04;90.58
21781;BME280;52576;53.614;9.894;2024-01-30T03:30:41;102380.50;;;3.00;90.56
21781;BME280;52576;53.614;9.894;2024-01-30T03:32:44;102377.94;;;2.95;90.76
21781;BME280;52576;53.614;9.894;2024-01-30T03:34:47;102373.66;;;2.91;90.72
21781;BME280;52576;53.614;9.894;2024-01-30T03:36:51;102379.78;;;2.86;90.99
21781;BME280;52576;53.614;9.894;2024-01-30T03:38:54;102377.22;;;2.81;91.06
21781;BME280;52576;53.614;9.894;2024-01-30T03:40:57;102372.06;;;2.78;91.00
21781;BME280;52576;53.614;9.894;2024-01-30T03:42:59;102364.34;;;2.73;91.22
21781;BME280;52576;53.614;9.894;2024-01-30T03:45:05;102361.78;;;2.69;91.28
21781;BME280;52576;53.614;9.894;2024-01-30T03:47:08;102367.84;;;2.66;91.48
21781;BME280;52576;53.614;9.894;2024-01-30T03:49:11;102367.00;;;2.63;91.75
21781;BME280;52576;53.614;9.894;2024-01-30T03:51:14;102359.28;;;2.60;91.67
21781;BME280;52576;53.614;9.894;2024-01-30T03:53:18;102364.50;;;2.57;91.88
21781;BME280;52576;53.614;9.894;2024-01-30T03:55:21;102367.09;;;2.54;92.13
21781;BME280;52576;53.614;9.894;2024-01-30T03:57:24;102366.25;;;2.52;92.13
21781;BME280;52576;53.614;9.894;2024-01-30T03:59:27;102358.50;;;2.49;92.26
21781;BME280;52576;53.614;9.894;2024-01-30T04:01:32;102362.00;;;2.45;92.21
21781;BME280;52576;53.614;9.894;2024-01-30T04:03:35;102358.56;;;2.43;92.07
21781;BME280;52576;53.614;9.894;2024-01-30T04:05:38;102361.16;;;2.39;92.43
21781;BME280;52576;53.614;9.894;2024-01-30T04:07:41;102364.63;;;2.37;92.58
21781;BME280;52576;53.614;9.894;2024-01-30T04:09:44;102367.22;;;2.35;92.69
21781;BME280;52576;53.614;9.894;2024-01-30T04:11:48;102368.13;;;2.33;92.83
21781;BME280;52576;53.614;9.894;2024-01-30T04:13:51;102365.56;;;2.31;92.83
21781;BME280;52576;53.614;9.894;2024-01-30T04:15:54;102356.09;;;2.29;92.89
21781;BME280;52576;53.614;9.894;2024-01-30T04:17:59;102353.50;;;2.27;93.05
21781;BME280;52576;53.614;9.894;2024-01-30T04:20:03;102362.13;;;2.26;93.20
21781;BME280;52576;53.614;9.894;2024-01-30T04:22:07;102362.16;;;2.23;93.18
21781;BME280;52576;53.614;9.894;2024-01-30T04:24:10;102365.59;;;2.22;93.27
21781;BME280;52576;53.614;9.894;2024-01-30T04:26:13;102363.88;;;2.21;93.40
21781;BME280;52576;53.614;9.894;2024-01-30T04:28:16;102363.88;;;2.21;93.47
21781;BME280;52576;53.614;9.894;2024-01-30T04:30:20;102365.63;;;2.19;93.57
21781;BME280;52576;53.614;9.894;2024-01-30T04:32:23;102367.34;;;2.19;93.49
21781;BME280;52576;53.614;9.894;2024-01-30T04:34:26;102365.63;;;2.18;93.83
21781;BME280;52576;53.614;9.894;2024-01-30T04:36:29;102370.81;;;2.16;93.93
21781;BME280;52576;53.614;9.894;2024-01-30T04:38:32;102367.38;;;2.16;93.73
21781;BME280;52576;53.614;9.894;2024-01-30T04:40:36;102368.25;;;2.15;93.74
21781;BME280;52576;53.614;9.894;2024-01-30T04:42:38;102372.56;;;2.14;93.92
21781;BME280;52576;53.614;9.894;2024-01-30T04:44:41;102371.69;;;2.12;94.13
21781;BME280;52576;53.614;9.894;2024-01-30T04:46:44;102369.13;;;2.12;94.12
21781;BME280;52576;53.614;9.894;2024-01-30T04:48:47;102374.28;;;2.12;94.12
21781;BME280;52576;53.614;9.894;2024-01-30T04:50:52;102371.69;;;2.12;94.17
21781;BME280;52576;53.614;9.894;2024-01-30T04:52:55;102375.16;;;2.11;94.37
21781;BME280;52576;53.614;9.894;2024-01-30T04:54:58;102375.16;;;2.11;94.45
21781;BME280;52576;53.614;9.894;2024-01-30T04:57:02;102376.03;;;2.10;94.63
21781;BME280;52576;53.614;9.894;2024-01-30T04:59:07;102370.84;;;2.10;94.41
21781;BME280;52576;53.614;9.894;2024-01-30T05:01:14;102368.25;;;2.12;94.59
21781;BME280;52576;53.614;9.894;2024-01-30T05:03:19;102363.94;;;2.12;94.43
21781;BME280;52576;53.614;9.894;2024-01-30T05:05:24;102363.91;;;2.15;94.73
21781;BME280;52576;53.614;9.894;2024-01-30T05:07:29;102366.50;;;2.18;94.79
21781;BME280;52576;53.614;9.894;2024-01-30T05:09:32;102360.44;;;2.22;94.75
21781;BME280;52576;53.614;9.894;2024-01-30T05:11:37;102356.94;;;2.28;95.08
21781;BME280;52576;53.614;9.894;2024-01-30T05:13:40;102362.09;;;2.32;95.24
21781;BME280;52576;53.614;9.894;2024-01-30T05:15:42;102356.84;;;2.38;95.63
21781;BME280;52576;53.614;9.894;2024-01-30T05:17:45;102355.97;;;2.43;95.53
21781;BME280;52576;53.614;9.894;2024-01-30T05:19:48;102368.00;;;2.50;95.83
21781;BME280;52576;53.614;9.894;2024-01-30T05:21:50;102369.69;;;2.55;95.85
21781;BME280;52576;53.614;9.894;2024-01-30T05:23:55;102367.06;;;2.60;96.04
21781;BME280;52576;53.614;9.894;2024-01-30T05:25:57;102367.88;;;2.63;95.83
21781;BME280;52576;53.614;9.894;2024-01-30T05:28:03;102375.59;;;2.68;95.73
21781;BME280;52576;53.614;9.894;2024-01-30T05:30:07;102372.13;;;2.72;95.98
21781;BME280;52576;53.614;9.894;2024-01-30T05:32:10;102369.50;;;2.75;95.82
21781;BME280;52576;53.614;9.894;2024-01-30T05:34:13;102361.72;;;2.78;96.03
21781;BME280;52576;53.614;9.894;2024-01-30T05:36:16;102360.81;;;2.81;95.83
21781;BME280;52576;53.614;9.894;2024-01-30T05:38:20;102359.94;;;2.83;95.68
21781;BME280;52576;53.614;9.894;2024-01-30T05:40:24;102342.66;;;2.85;95.75
21781;BME280;52576;53.614;9.894;2024-01-30T05:42:28;102340.88;;;2.87;95.80
21781;BME280;52576;53.614;9.894;2024-01-30T05:44:30;102340.84;;;2.90;95.71
21781;BME280;52576;53.614;9.894;2024-01-30T05:46:33;102345.16;;;2.93;95.82
21781;BME280;52576;53.614;9.894;2024-01-30T05:48:37;102339.09;;;2.95;95.83
21781;BME280;52576;53.614;9.894;2024-01-30T05:50:39;102343.38;;;2.98;95.75
21781;BME280;52576;53.614;9.894;2024-01-30T05:52:42;102343.34;;;3.01;95.91
21781;BME280;52576;53.614;9.894;2024-01-30T05:54:45;102333.81;;;3.04;95.82
21781;BME280;52576;53.614;9.894;2024-01-30T05:56:50;102334.66;;;3.06;95.81
21781;BME280;52576;53.614;9.894;2024-01-30T05:58:53;102334.66;;;3.08;95.67
21781;BME280;52576;53.614;9.894;2024-01-30T06:00:56;102326.88;;;3.10;95.59
21781;BME280;52576;53.614;9.894;2024-01-30T06:03:00;102335.47;;;3.12;95.53
21781;BME280;52576;53.614;9.894;2024-01-30T06:05:03;102326.81;;;3.13;95.60
21781;BME280;52576;53.614;9.894;2024-01-30T06:07:06;102332.81;;;3.16;95.84
21781;BME280;52576;53.614;9.894;2024-01-30T06:09:10;102328.44;;;3.20;95.69
21781;BME280;52576;53.614;9.894;2024-01-30T06:11:12;102332.72;;;3.24;95.62
21781;BME280;52576;53.614;9.894;2024-01-30T06:13:16;102324.94;;;3.25;95.43
21781;BME280;52576;53.614;9.894;2024-01-30T06:15:20;102325.78;;;3.27;95.52
21781;BME280;52576;53.614;9.894;2024-01-30T06:17:23;102328.34;;;3.30;95.50
21781;BME280;52576;53.614;9.894;2024-01-30T06:19:26;102327.41;;;3.36;95.43
21781;BME280;52576;53.614;9.894;2024-01-30T06:21:30;102334.25;;;3.40;95.49
21781;BME280;52576;53.614;9.894;2024-01-30T06:23:34;102329.03;;;3.45;95.54
21781;BME280;52576;53.614;9.894;2024-01-30T06:25:37;102321.19;;;3.49;95.54
21781;BME280;52576;53.614;9.894;2024-01-30T06:27:40;102315.09;;;3.52;95.45
21781;BME280;52576;53.614;9.894;2024-01-30T06:29:44;102315.06;;;3.55;95.26
21781;BME280;52576;53.614;9.894;2024-01-30T06:31:48;102310.72;;;3.58;95.29
21781;BME280;52576;53.614;9.894;2024-01-30T06:33:51;102307.22;;;3.61;95.27
21781;BME280;52576;53.614;9.894;2024-01-30T06:35:54;102300.22;;;3.64;95.17
21781;BME280;52576;53.614;9.894;2024-01-30T06:37:57;102297.59;;;3.67;95.23
21781;BME280;52576;53.614;9.894;2024-01-30T06:40:00;102301.91;;;3.68;95.01
21781;BME280;52576;53.614;9.894;2024-01-30T06:42:04;102295.84;;;3.69;94.97
21781;BME280;52576;53.614;9.894;2024-01-30T06:44:07;102296.69;;;3.71;95.03
21781;BME280;52576;53.614;9.894;2024-01-30T06:46:12;102307.03;;;3.74;95.16
21781;BME280;52576;53.614;9.894;2024-01-30T06:48:15;102303.56;;;3.74;95.03
21781;BME280;52576;53.614;9.894;2024-01-30T06:50:18;102308.75;;;3.74;94.94
21781;BME280;52576;53.614;9.894;2024-01-30T06:52:21;102303.53;;;3.75;94.89
21781;BME280;52576;53.614;9.894;2024-01-30T06:54:24;102312.19;;;3.74;94.80
21781;BME280;52576;53.614;9.894;2024-01-30T06:56:28;102305.31;;;3.73;94.77
21781;BME280;52576;53.614;9.894;2024-01-30T06:58:31;102307.91;;;3.73;94.92
21781;BME280;52576;53.614;9.894;2024-01-30T07:00:34;102294.94;;;3.73;94.80
21781;BME280;52576;53.614;9.894;2024-01-30T07:02:39;102294.06;;;3.73;94.74
21781;BME280;52576;53.614;9.894;2024-01-30T07:04:42;102296.69;;;3.71;94.69
21781;BME280;52576;53.614;9.894;2024-01-30T07:06:48;102301.88;;;3.71;94.90
21781;BME280;52576;53.614;9.894;2024-01-30T07:08:51;102305.34;;;3.70;94.84
21781;BME280;52576;53.614;9.894;2024-01-30T07:10:54;102309.66;;;3.70;94.75
21781;BME280;52576;53.614;9.894;2024-01-30T07:13:01;102314.03;;;3.66;94.58
21781;BME280;52576;53.614;9.894;2024-01-30T07:15:04;102311.47;;;3.65;94.61
21781;BME280;52576;53.614;9.894;2024-01-30T07:17:09;102308.91;;;3.63;94.54
21781;BME280;52576;53.614;9.894;2024-01-30T07:19:14;102302.03;;;3.62;94.80
21781;BME280;52576;53.614;9.894;2024-01-30T07:21:17;102302.91;;;3.61;94.72
21781;BME280;52576;53.614;9.894;2024-01-30T07:23:20;102295.13;;;3.61;94.59
21781;BME280;52576;53.614;9.894;2024-01-30T07:25:23;102296.84;;;3.62;94.90
21781;BME280;52576;53.614;9.894;2024-01-30T07:27:29;102304.63;;;3.62;94.99
21781;BME280;52576;53.614;9.894;2024-01-30T07:29:32;102300.28;;;3.63;95.03
21781;BME280;52576;53.614;9.894;2024-01-30T07:31:35;102305.41;;;3.64;95.10
21781;BME280;52576;53.614;9.894;2024-01-30T07:33:37;102301.94;;;3.65;95.01
21781;BME280;52576;53.614;9.894;2024-01-30T07:35:42;102302.78;;;3.67;95.03
21781;BME280;52576;53.614;9.894;2024-01-30T07:37:44;102303.63;;;3.69;94.95
21781;BME280;52576;53.614;9.894;2024-01-30T07:39:47;102301.88;;;3.71;94.98
21781;BME280;52576;53.614;9.894;2024-01-30T07:41:50;102303.56;;;3.74;95.04
21781;BME280;52576;53.614;9.894;2024-01-30T07:43:53;102298.31;;;3.79;95.13
21781;BME280;52576;53.614;9.894;2024-01-30T07:45:56;102310.38;;;3.83;95.01
21781;BME280;52576;53.614;9.894;2024-01-30T07:48:00;102306.91;;;3.84;95.18
21781;BME280;52576;53.614;9.894;2024-01-30T07:50:04;102306.84;;;3.87;95.14
21781;BME280;52576;53.614;9.894;2024-01-30T07:52:09;102308.50;;;3.91;95.17
21781;BME280;52576;53.614;9.894;2024-01-30T07:54:12;102310.19;;;3.93;95.21
21781;BME280;52576;53.614;9.894;2024-01-30T07:56:14;102301.50;;;3.96;95.02
21781;BME280;52576;53.614;9.894;2024-01-30T07:58:18;102295.41;;;4.00;94.97
21781;BME280;52576;53.614;9.894;2024-01-30T08:00:22;102289.28;;;4.04;95.11
21781;BME280;52576;53.614;9.894;2024-01-30T08:02:24;102290.97;;;4.08;95.12
21781;BME280;52576;53.614;9.894;2024-01-30T08:04:27;102286.56;;;4.13;95.03
21781;BME280;52576;53.614;9.894;2024-01-30T08:06:30;102287.31;;;4.18;94.95
21781;BME280;52576;53.614;9.894;2024-01-30T08:08:35;102295.03;;;4.23;95.03
21781;BME280;52576;53.614;9.894;2024-01-30T08:10:39;102295.84;;;4.26;95.02
21781;BME280;52576;53.614;9.894;2024-01-30T08:12:42;102288.00;;;4.31;94.94
21781;BME280;52576;53.614;9.894;2024-01-30T08:14:46;102294.81;;;4.36;95.09
21781;BME280;52576;53.614;9.894;2024-01-30T08:16:49;102292.19;;;4.39;94.81
21781;BME280;52576;53.614;9.894;2024-01-30T08:18:52;102297.25;;;4.46;94.88
21781;BME280;52576;53.614;9.894;2024-01-30T08:20:58;102289.38;;;4.50;94.96
21781;BME280;52576;53.614;9.894;2024-01-30T08:23:01;102285.84;;;4.54;94.87
21781;BME280;52576;53.614;9.894;2024-01-30T08:25:08;102284.91;;;4.60;94.86
21781;BME280;52576;53.614;9.894;2024-01-30T08:27:12;102285.69;;;4.65;94.67
21781;BME280;52576;53.614;9.894;2024-01-30T08:29:16;102289.91;;;4.69;94.56
21781;BME280;52576;53.614;9.894;2024-01-30T08:31:19;102283.72;;;4.76;94.57
21781;BME280;52576;53.614;9.894;2024-01-30T08:33:22;102289.69;;;4.81;94.56
21781;BME280;52576;53.614;9.894;2024-01-30T08:35:26;102281.81;;;4.86;94.29
21781;BME280;52576;53.614;9.894;2024-01-30T08:37:29;102281.69;;;4.92;94.23
21781;BME280;52576;53.614;9.894;2024-01-30T08:39:31;102275.50;;;4.97;94.06
21781;BME280;52576;53.614;9.894;2024-01-30T08:41:36;102278.88;;;5.02;93.84
21781;BME280;52576;53.614;9.894;2024-01-30T08:43:39;102278.75;;;5.08;93.69
21781;BME280;52576;53.614;9.894;2024-01-30T08:45:42;102269.13;;;5.14;93.58
21781;BME280;52576;53.614;9.894;2024-01-30T08:47:45;102263.88;;;5.17;93.37
21781;BME280;52576;53.614;9.894;2024-01-30T08:49:48;102263.84;;;5.18;93.18
21781;BME280;52576;53.614;9.894;2024-01-30T08:51:51;102256.03;;;5.20;92.85
21781;BME280;52576;53.614;9.894;2024-01-30T08:53:54;102254.22;;;5.22;92.72
21781;BME280;52576;53.614;9.894;2024-01-30T08:55:58;102252.44;;;5.24;92.63
21781;BME280;52576;53.614;9.894;2024-01-30T08:58:02;102248.06;;;5.26;92.44
21781;BME280;52576;53.614;9.894;2024-01-30T09:00:07;102245.41;;;5.29;92.26
21781;BME280;52576;53.614;9.894;2024-01-30T09:02:11;102232.38;;;5.30;91.98
21781;BME280;52576;53.614;9.894;2024-01-30T09:04:15;102241.88;;;5.33;92.18
21781;BME280;52576;53.614;9.894;2024-01-30T09:06:18;102252.16;;;5.37;92.18
21781;BME280;52576;53.614;9.894;2024-01-30T09:08:21;102257.28;;;5.42;92.12
21781;BME280;52576;53.614;9.894;2024-01-30T09:10:24;102259.75;;;5.46;91.93
21781;BME280;52576;53.614;9.894;2024-01-30T09:12:27;102261.41;;;5.51;91.81
21781;BME280;52576;53.614;9.894;2024-01-30T09:14:32;102260.41;;;5.56;91.70
21781;BME280;52576;53.614;9.894;2024-01-30T09:16:34;102270.75;;;5.59;91.57
21781;BME280;52576;53.614;9.894;2024-01-30T09:18:37;102267.19;;;5.63;91.28
21781;BME280;52576;53.614;9.894;2024-01-30T09:20:41;102275.78;;;5.67;91.08
21781;BME280;52576;53.614;9.894;2024-01-30T09:22:44;102271.38;;;5.70;90.91
21781;BME280;52576;53.614;9.894;2024-01-30T09:24:47;102282.50;;;5.75;90.79
21781;BME280;52576;53.614;9.894;2024-01-30T09:26:53;102284.16;;;5.79;90.63
21781;BME280;52576;53.614;9.894;2024-01-30T09:28:57;102288.41;;;5.84;90.48
21781;BME280;52576;53.614;9.894;2024-01-30T09:31:01;102288.38;;;5.85;90.21
21781;BME280;52576;53.614;9.894;2024-01-30T09:33:05;102294.41;;;5.89;90.17
21781;BME280;52576;53.614;9.894;2024-01-30T09:35:08;102289.13;;;5.92;89.88
21781;BME280;52576;53.614;9.894;2024-01-30T09:37:12;102290.78;;;5.96;89.82
21781;BME280;52576;53.614;9.894;2024-01-30T09:39:17;102290.66;;;5.99;89.69
21781;BME280;52576;53.614;9.894;2024-01-30T09:41:23;102287.09;;;6.03;89.54
21781;BME280;52576;53.614;9.894;2024-01-30T09:43:27;102289.59;;;6.07;89.42
21781;BME280;52576;53.614;9.894;2024-01-30T09:45:35;102286.03;;;6.11;89.39
21781;BME280;52576;53.614;9.894;2024-01-30T09:47:42;102282.47;;;6.16;89.21
21781;BME280;52576;53.614;9.894;2024-01-30T09:49:46;102279.78;;;6.20;89.25
21781;BME280;52576;53.614;9.894;2024-01-30T09:51:51;102270.97;;;6.24;89.26
21781;BME280;52576;53.614;9.894;2024-01-30T09:53:55;102273.41;;;6.30;89.11
21781;BME280;52576;53.614;9.894;2024-01-30T09:55:58;102262.84;;;6.36;89.01
21781;BME280;52576;53.614;9.894;2024-01-30T09:58:01;102258.31;;;6.44;88.86
21781;BME280;52576;53.614;9.894;2024-01-30T10:00:06;102252.06;;;6.50;88.74
21781;BME280;52576;53.614;9.894;2024-01-30T10:02:14;102249.25;;;6.58;88.64
21781;BME280;52576;53.614;9.894;2024-01-30T10:04:20;102250.81;;;6.65;88.54
21781;BME280;52576;53.614;9.894;2024-01-30T10:06:24;102248.06;;;6.71;88.28
21781;BME280;52576;53.614;9.894;2024-01-30T10:08:26;102253.03;;;6.78;88.10
21781;BME280;52576;53.614;9.894;2024-01-30T10:10:32;102247.63;;;6.86;87.84
21781;BME280;52576;53.614;9.894;2024-01-30T10:12:35;102257.00;;;6.93;87.59
21781;BME280;52576;53.614;9.894;2024-01-30T10:14:38;102243.75;;;7.01;87.49
21781;BME280;52576;53.614;9.894;2024-01-30T10:16:42;102253.94;;;7.08;87.33
21781;BME280;52576;53.614;9.894;2024-01-30T10:18:48;102260.69;;;7.15;87.10
21781;BME280;52576;53.614;9.894;2024-01-30T10:20:52;102256.13;;;7.24;86.96
21781;BME280;52576;53.614;9.894;2024-01-30T10:22:56;102257.63;;;7.31;86.79
21781;BME280;52576;53.614;9.894;2024-01-30T10:24:59;102255.66;;;7.39;86.53
21781;BME280;52576;53.614;9.894;2024-01-30T10:27:08;102258.03;;;7.46;86.11
21781;BME280;52576;53.614;9.894;2024-01-30T10:29:12;102249.09;;;7.54;85.98
21781;BME280;52576;53.614;9.894;2024-01-30T10:31:16;102247.97;;;7.62;85.72
21781;BME280;52576;53.614;9.894;2024-01-30T10:33:20;102240.78;;;7.70;85.63
21781;BME280;52576;53.614;9.894;2024-01-30T10:35:23;102246.59;;;7.78;85.42
21781;BME280;52576;53.614;9.894;2024-01-30T10:37:30;102236.75;;;7.87;85.06
21781;BME280;52576;53.614;9.894;2024-01-30T10:39:38;102236.56;;;7.93;84.73
21781;BME280;52576;53.614;9.894;2024-01-30T10:41:43;102235.53;;;7.98;84.64
21781;BME280;52576;53.614;9.894;2024-01-30T10:43:58;102238.84;;;8.03;84.42
21781;BME280;52576;53.614;9.894;2024-01-30T10:46:10;102244.69;;;8.10;83.94
21781;BME280;52576;53.614;9.894;2024-01-30T10:48:17;102237.63;;;8.13;83.77
21781;BME280;52576;53.614;9.894;2024-01-30T10:50:25;102244.41;;;8.19;83.23
21781;BME280;52576;53.614;9.894;2024-01-30T10:52:31;102232.94;;;8.23;83.01
21781;BME280;52576;53.614;9.894;2024-01-30T10:54:34;102237.16;;;8.27;82.98